Formby, United Kingdom
Current Conditions -  °F | °C
As of 3:50 PM on Monday 24 Nov 2014 (Local Time) from EGGP Reporting Station
Few Clouds Few Clouds  
Wind Chill: 48°   Ceiling: Unl
Heat Index: 48°   Visibility: 6mi
Dew Point: 39°   Wind: 2mph
Humidity: 71%   Direction: 210°SSW
Pressure: 30.3"   Gusts: NA
Location:  53.56°N, 3.06°W
Report Text: EGGP 241550Z 21002KT 9999 FEW037 09/04 Q1026
Loading
Personal Weather Stations






























Interactive Weather Map New forecast layout! Learn more

10-Day Weather Forecast

Advertisements
Track Severe Weather on mobile